createdAt,value
2023-04-26T00:00:00.725Z,94667.22
2023-04-26T00:02:27.167Z,94674.56
2023-04-26T00:04:53.813Z,94675.88
2023-04-26T00:07:20.292Z,94673.72
2023-04-26T00:09:46.589Z,94675.72
2023-04-26T00:12:12.939Z,94678.19
2023-04-26T00:14:39.269Z,94671.97
2023-04-26T00:17:05.594Z,94674.28
2023-04-26T00:19:31.906Z,94670.03
2023-04-26T00:21:58.205Z,94678.50
2023-04-26T00:24:24.535Z,94674.75
2023-04-26T00:26:50.841Z,94672.63
2023-04-26T00:29:17.171Z,94670.00
2023-04-26T00:31:43.526Z,94669.31
2023-04-26T00:34:09.874Z,94673.75
2023-04-26T00:36:36.204Z,94666.03
2023-04-26T00:39:02.514Z,94676.31
2023-04-26T00:41:28.831Z,94675.84
2023-04-26T00:43:55.191Z,94667.94
2023-04-26T00:46:21.536Z,94670.25
2023-04-26T00:48:47.927Z,94670.25
2023-04-26T00:51:14.259Z,94673.06
2023-04-26T00:53:40.576Z,94674.22
2023-04-26T00:56:06.951Z,94667.38
2023-04-26T00:58:33.435Z,94665.06
2023-04-26T01:00:59.805Z,94673.28
2023-04-26T01:03:26.285Z,94669.47
2023-04-26T01:05:52.712Z,94664.06
2023-04-26T01:08:19.048Z,94660.50
2023-04-26T01:10:45.373Z,94656.22
2023-04-26T01:13:11.682Z,94655.56
2023-04-26T01:15:38.008Z,94659.97
2023-04-26T01:18:04.335Z,94663.38
2023-04-26T01:20:30.644Z,94664.19
2023-04-26T01:22:57.039Z,94656.03
2023-04-26T01:25:23.372Z,94661.09
2023-04-26T01:27:49.689Z,94656.03
2023-04-26T01:30:16.020Z,94665.69
2023-04-26T01:32:42.377Z,94662.75
2023-04-26T01:35:08.728Z,94666.94
2023-04-26T01:37:35.057Z,94668.88
2023-04-26T01:40:01.401Z,94669.34
2023-04-26T01:42:27.761Z,94669.78
2023-04-26T01:44:54.063Z,94673.00
2023-04-26T01:47:20.374Z,94670.78
2023-04-26T01:49:46.686Z,94664.56
2023-04-26T01:52:13.003Z,94662.41
2023-04-26T01:54:39.303Z,94663.84
2023-04-26T01:57:05.601Z,94658.84
2023-04-26T01:59:31.932Z,94658.75
2023-04-26T02:01:58.363Z,94656.41
2023-04-26T02:04:24.696Z,94641.13
2023-04-26T02:06:51.027Z,94640.47
2023-04-26T02:09:17.329Z,94637.53
2023-04-26T02:11:43.633Z,94636.22
2023-04-26T02:14:09.941Z,94638.28
2023-04-26T02:16:36.314Z,94640.66
2023-04-26T02:19:02.741Z,94636.44
2023-04-26T02:21:30.166Z,94632.69
2023-04-26T02:23:56.475Z,94637.75
2023-04-26T02:26:22.800Z,94642.00
2023-04-26T02:28:49.117Z,94634.38
2023-04-26T02:31:15.461Z,94636.00
2023-04-26T02:33:41.820Z,94637.09
2023-04-26T02:36:08.132Z,94639.25
2023-04-26T02:38:34.446Z,94632.50
2023-04-26T02:41:00.766Z,94632.56
2023-04-26T02:43:27.095Z,94633.44
2023-04-26T02:45:53.488Z,94625.75
2023-04-26T02:48:19.817Z,94632.94
2023-04-26T02:50:46.160Z,94639.97
2023-04-26T02:53:12.483Z,94635.88
2023-04-26T02:55:38.807Z,94643.47
2023-04-26T02:58:05.125Z,94632.06
2023-04-26T03:00:31.457Z,94626.63
2023-04-26T03:02:57.932Z,94627.81
2023-04-26T03:05:24.349Z,94635.50
2023-04-26T03:07:50.654Z,94634.06
2023-04-26T03:10:16.957Z,94630.50
2023-04-26T03:12:43.294Z,94631.97
2023-04-26T03:15:09.639Z,94635.56
2023-04-26T03:17:35.997Z,94629.09
2023-04-26T03:20:02.851Z,94629.63
2023-04-26T03:22:29.308Z,94625.53
2023-04-26T03:24:55.615Z,94630.38
2023-04-26T03:27:21.949Z,94630.00
2023-04-26T03:29:48.251Z,94633.00
2023-04-26T03:32:14.614Z,94627.81
2023-04-26T03:34:40.959Z,94626.84
2023-04-26T03:37:07.256Z,94627.13
2023-04-26T03:39:33.581Z,94624.81
2023-04-26T03:41:59.908Z,94629.53
2023-04-26T03:44:26.320Z,94628.66
2023-04-26T03:46:52.622Z,94618.78
2023-04-26T03:49:18.932Z,94628.75
2023-04-26T03:51:45.239Z,94624.22
2023-04-26T03:54:11.575Z,94616.56
2023-04-26T03:56:37.907Z,94620.41
2023-04-26T03:59:04.230Z,94615.50
2023-04-26T04:01:30.531Z,94609.38
2023-04-26T04:03:57.011Z,94608.56
2023-04-26T04:06:23.646Z,94603.47
2023-04-26T04:08:50.191Z,94601.56
2023-04-26T04:11:16.962Z,94600.06
2023-04-26T04:13:43.298Z,94603.81
2023-04-26T04:16:09.648Z,94606.50
2023-04-26T04:18:35.978Z,94610.91
2023-04-26T04:21:02.277Z,94612.63
2023-04-26T04:23:28.612Z,94621.19
2023-04-26T04:25:54.951Z,94625.88
2023-04-26T04:28:21.297Z,94629.88
2023-04-26T04:30:47.693Z,94631.66
2023-04-26T04:33:14.101Z,94630.53
2023-04-26T04:35:40.430Z,94630.38
2023-04-26T04:38:06.760Z,94629.66
2023-04-26T04:40:33.088Z,94632.50
2023-04-26T04:42:59.395Z,94636.25
2023-04-26T04:45:25.691Z,94649.28
2023-04-26T04:47:52.025Z,94650.03
2023-04-26T04:50:18.370Z,94642.09
2023-04-26T04:52:44.693Z,94638.22
2023-04-26T04:55:11.019Z,94635.44
2023-04-26T04:57:37.340Z,94642.31
2023-04-26T05:00:03.652Z,94649.38
2023-04-26T05:02:30.154Z,94661.19
2023-04-26T05:04:56.543Z,94662.50
2023-04-26T05:07:24.416Z,94662.84
2023-04-26T05:09:50.953Z,94659.75
2023-04-26T05:12:17.278Z,94668.09
2023-04-26T05:14:43.608Z,94669.56
2023-04-26T05:17:09.934Z,94672.53
2023-04-26T05:19:36.480Z,94677.16
2023-04-26T05:22:02.831Z,94671.13
2023-04-26T05:24:29.145Z,94657.50
2023-04-26T05:26:55.441Z,94645.16
2023-04-26T05:29:21.814Z,94649.75
2023-04-26T05:31:48.143Z,94651.38
2023-04-26T05:34:14.491Z,94657.16
2023-04-26T05:36:40.811Z,94655.84
2023-04-26T05:39:07.130Z,94654.72
2023-04-26T05:41:33.461Z,94652.09
2023-04-26T05:43:59.766Z,94655.41
2023-04-26T05:46:26.165Z,94659.97
2023-04-26T05:48:52.507Z,94663.22
2023-04-26T05:51:18.835Z,94663.19
2023-04-26T05:53:45.159Z,94663.66
2023-04-26T05:56:11.466Z,94678.53
2023-04-26T05:58:37.788Z,94680.19
2023-04-26T06:01:04.097Z,94685.78
2023-04-26T06:03:30.668Z,94679.72
2023-04-26T06:05:57.292Z,94683.50
2023-04-26T06:08:23.640Z,94698.59
2023-04-26T06:10:49.976Z,94701.88
2023-04-26T06:13:16.302Z,94695.31
2023-04-26T06:15:42.615Z,94695.47
2023-04-26T06:18:09.053Z,94697.91
2023-04-26T06:20:35.400Z,94695.31
2023-04-26T06:23:01.735Z,94702.19
2023-04-26T06:25:28.054Z,94695.81
2023-04-26T06:27:54.368Z,94693.88
2023-04-26T06:30:20.697Z,94705.00
2023-04-26T06:32:47.113Z,94695.66
2023-04-26T06:35:13.468Z,94690.44
2023-04-26T06:37:39.764Z,94689.47
2023-04-26T06:40:06.083Z,94685.88
2023-04-26T06:42:32.432Z,94690.28
2023-04-26T06:44:58.754Z,94696.34
2023-04-26T06:47:25.063Z,94691.75
2023-04-26T06:49:51.400Z,94690.59
2023-04-26T06:52:18.674Z,94687.31
2023-04-26T06:54:56.121Z,94684.69
2023-04-26T06:57:23.617Z,94696.16
2023-04-26T06:59:50.127Z,94699.13
2023-04-26T07:02:16.471Z,94686.63
2023-04-26T07:04:43.097Z,94689.56
2023-04-26T07:07:11.117Z,94685.47
2023-04-26T07:09:39.268Z,94686.31
2023-04-26T07:12:05.582Z,94680.75
2023-04-26T07:14:31.931Z,94686.81
2023-04-26T07:16:58.244Z,94682.03
2023-04-26T07:19:24.600Z,94686.13
2023-04-26T07:21:50.933Z,94684.19
2023-04-26T07:24:17.258Z,94681.19
2023-04-26T07:26:43.597Z,94677.09
2023-04-26T07:29:09.920Z,94675.50
2023-04-26T07:31:36.244Z,94682.47
2023-04-26T07:34:02.573Z,94685.06
2023-04-26T07:36:28.898Z,94678.47
2023-04-26T07:38:55.211Z,94667.00
2023-04-26T07:41:21.532Z,94666.44
2023-04-26T07:43:47.851Z,94670.16
2023-04-26T07:46:14.241Z,94667.84
2023-04-26T07:48:40.630Z,94661.59
2023-04-26T07:51:06.943Z,94672.16
2023-04-26T07:53:33.255Z,94664.44
2023-04-26T07:55:59.602Z,94669.38
2023-04-26T07:58:25.949Z,94661.44
2023-04-26T08:00:52.252Z,94663.06
2023-04-26T08:03:18.710Z,94662.97
2023-04-26T08:05:45.639Z,94661.97
2023-04-26T08:08:12.055Z,94659.13
2023-04-26T08:10:38.362Z,94669.09
2023-04-26T08:13:04.717Z,94657.81
2023-04-26T08:15:31.042Z,94662.59
2023-04-26T08:17:57.467Z,94657.94
2023-04-26T08:20:23.879Z,94654.50
2023-04-26T08:22:50.246Z,94658.03
2023-04-26T08:25:16.578Z,94654.16
2023-04-26T08:27:42.895Z,94655.16
2023-04-26T08:30:09.216Z,94663.44
2023-04-26T08:32:35.571Z,94660.78
2023-04-26T08:35:01.969Z,94654.44
2023-04-26T08:37:29.403Z,94657.38
2023-04-26T08:39:55.880Z,94659.28
2023-04-26T08:42:22.188Z,94661.81
2023-04-26T08:44:48.516Z,94664.31
2023-04-26T08:47:14.839Z,94655.41
2023-04-26T08:49:41.173Z,94653.91
2023-04-26T08:52:07.497Z,94647.66
2023-04-26T08:54:33.823Z,94660.50
2023-04-26T08:57:00.144Z,94657.69
2023-04-26T08:59:26.439Z,94657.91
2023-04-26T09:01:52.815Z,94657.53
2023-04-26T09:04:19.363Z,94659.22
2023-04-26T09:06:45.866Z,94654.94
2023-04-26T09:09:12.185Z,94652.63
2023-04-26T09:11:38.487Z,94652.66
2023-04-26T09:14:04.798Z,94649.34
2023-04-26T09:16:31.133Z,94649.03
2023-04-26T09:18:57.539Z,94646.16
2023-04-26T09:21:23.844Z,94644.22
2023-04-26T09:23:50.172Z,94646.25
2023-04-26T09:26:16.500Z,94634.13
2023-04-26T09:28:42.824Z,94638.47
2023-04-26T09:31:09.725Z,94636.91
2023-04-26T09:33:36.065Z,94636.88
2023-04-26T09:36:02.363Z,94634.81
2023-04-26T09:38:28.666Z,94641.91
2023-04-26T09:40:55.020Z,94635.41
2023-04-26T09:43:21.412Z,94635.63
2023-04-26T09:45:47.760Z,94632.59
2023-04-26T09:48:14.069Z,94639.84
2023-04-26T09:50:40.377Z,94642.03
2023-04-26T09:53:06.705Z,94641.25
2023-04-26T09:55:35.260Z,94635.41
2023-04-26T09:58:02.096Z,94624.47
2023-04-26T10:00:28.447Z,94627.78
2023-04-26T10:02:54.844Z,94633.25
2023-04-26T10:05:21.236Z,94626.16
2023-04-26T10:07:47.562Z,94635.09
2023-04-26T10:10:14.008Z,94640.00
2023-04-26T10:12:40.344Z,94631.72
2023-04-26T10:15:06.656Z,94631.38
2023-04-26T10:17:32.994Z,94631.38
2023-04-26T10:19:59.362Z,94620.78
2023-04-26T10:22:25.665Z,94615.13
2023-04-26T10:24:51.990Z,94612.25
2023-04-26T10:27:18.316Z,94600.03
2023-04-26T10:29:44.641Z,94599.44
2023-04-26T10:32:11.011Z,94601.28
2023-04-26T10:34:37.333Z,94586.41
2023-04-26T10:37:03.653Z,94591.47
2023-04-26T10:39:29.964Z,94590.25
2023-04-26T10:41:56.289Z,94594.75
2023-04-26T10:44:22.598Z,94588.22
2023-04-26T10:46:48.928Z,94589.84
2023-04-26T10:49:15.248Z,94589.44
2023-04-26T10:51:41.565Z,94592.09
2023-04-26T10:54:07.885Z,94587.59
2023-04-26T10:56:34.213Z,94591.41
2023-04-26T10:59:00.554Z,94592.00
2023-04-26T11:01:26.887Z,94581.00
2023-04-26T11:03:53.489Z,94582.00
2023-04-26T11:06:20.093Z,94583.59
2023-04-26T11:08:46.413Z,94583.44
2023-04-26T11:11:12.740Z,94581.00
2023-04-26T11:13:39.079Z,94586.28
2023-04-26T11:16:05.480Z,94588.72
2023-04-26T11:18:31.878Z,94581.00
2023-04-26T11:20:58.221Z,94596.69
2023-04-26T11:23:24.673Z,94588.50
2023-04-26T11:25:50.987Z,94585.00
2023-04-26T11:28:17.303Z,94582.69
2023-04-26T11:30:43.604Z,94586.72
2023-04-26T11:33:09.930Z,94587.69
2023-04-26T11:35:36.281Z,94583.91
2023-04-26T11:38:02.609Z,94577.53
2023-04-26T11:40:29.004Z,94573.16
2023-04-26T11:42:55.325Z,94579.72
2023-04-26T11:45:21.663Z,94569.84
2023-04-26T11:47:48.042Z,94563.84
2023-04-26T11:50:14.362Z,94568.06
2023-04-26T11:52:40.662Z,94559.97
2023-04-26T11:55:06.970Z,94559.03
2023-04-26T11:57:33.368Z,94556.38
2023-04-26T11:59:59.682Z,94558.84
2023-04-26T12:02:26.153Z,94553.31
2023-04-26T12:04:52.718Z,94549.66
2023-04-26T12:07:19.144Z,94557.38
2023-04-26T12:09:45.469Z,94555.56
2023-04-26T12:12:11.807Z,94556.78
2023-04-26T12:14:38.137Z,94554.84
2023-04-26T12:17:04.532Z,94551.41
2023-04-26T12:19:30.911Z,94554.34
2023-04-26T12:21:57.295Z,94551.63
2023-04-26T12:24:23.598Z,94550.38
2023-04-26T12:26:49.912Z,94552.28
2023-04-26T12:29:16.219Z,94553.31
2023-04-26T12:31:42.568Z,94555.16
2023-04-26T12:34:08.929Z,94541.88
2023-04-26T12:36:35.273Z,94553.97
2023-04-26T12:39:01.611Z,94552.50
2023-04-26T12:41:27.947Z,94549.53
2023-04-26T12:43:54.254Z,94551.72
2023-04-26T12:46:20.619Z,94557.59
2023-04-26T12:48:46.969Z,94550.88
2023-04-26T12:51:13.289Z,94553.97
2023-04-26T12:53:39.609Z,94557.63
2023-04-26T12:56:06.128Z,94559.22
2023-04-26T12:58:32.450Z,94561.88
2023-04-26T13:00:58.785Z,94550.53
2023-04-26T13:03:25.236Z,94556.41
2023-04-26T13:05:51.642Z,94557.09
2023-04-26T13:08:18.015Z,94552.94
2023-04-26T13:10:44.333Z,94553.91
2023-04-26T13:13:10.673Z,94554.50
2023-04-26T13:15:37.006Z,94547.03
2023-04-26T13:18:03.362Z,94546.81
2023-04-26T13:20:30.950Z,94536.91
2023-04-26T13:22:57.425Z,94540.75
2023-04-26T13:25:23.756Z,94536.31
2023-04-26T13:27:50.069Z,94536.44
2023-04-26T13:30:16.372Z,94533.09
2023-04-26T13:32:42.714Z,94530.09
2023-04-26T13:35:09.167Z,94525.19
2023-04-26T13:37:35.505Z,94535.19
2023-04-26T13:40:01.852Z,94537.25
2023-04-26T13:42:28.187Z,94528.28
2023-04-26T13:44:54.539Z,94523.09
2023-04-26T13:47:20.923Z,94527.56
2023-04-26T13:49:47.322Z,94526.97
2023-04-26T13:52:13.660Z,94528.09
2023-04-26T13:54:40.000Z,94518.75
2023-04-26T13:57:06.348Z,94524.34
2023-04-26T13:59:32.665Z,94532.28
2023-04-26T14:01:59.330Z,94529.06
2023-04-26T14:04:26.094Z,94526.16
2023-04-26T14:06:52.569Z,94527.56
2023-04-26T14:09:18.892Z,94530.25
2023-04-26T14:11:49.327Z,94532.00
2023-04-26T14:14:20.465Z,94523.28
2023-04-26T14:16:46.798Z,94512.16
2023-04-26T14:19:13.125Z,94523.66
2023-04-26T14:21:39.438Z,94519.44
2023-04-26T14:24:05.758Z,94520.63
2023-04-26T14:26:32.088Z,94523.97
2023-04-26T14:28:58.398Z,94522.00
2023-04-26T14:31:24.848Z,94526.00
2023-04-26T14:33:51.197Z,94526.31
2023-04-26T14:36:17.503Z,94527.81
2023-04-26T14:38:43.802Z,94515.63
2023-04-26T14:41:10.144Z,94516.47
2023-04-26T14:43:36.480Z,94529.22
2023-04-26T14:46:02.872Z,94518.03
2023-04-26T14:48:29.220Z,94524.47
2023-04-26T14:50:55.526Z,94518.19
2023-04-26T14:53:21.849Z,94516.56
2023-04-26T14:55:48.169Z,94513.69
2023-04-26T14:58:14.621Z,94521.22
2023-04-26T15:00:41.001Z,94519.13
2023-04-26T15:03:07.446Z,94521.09
2023-04-26T15:05:33.864Z,94517.63
2023-04-26T15:08:00.328Z,94513.41
2023-04-26T15:10:26.659Z,94518.50
2023-04-26T15:12:52.981Z,94524.19
2023-04-26T15:15:19.316Z,94518.16
2023-04-26T15:17:45.679Z,94513.88
2023-04-26T15:20:12.042Z,94524.31
2023-04-26T15:22:39.025Z,94523.16
2023-04-26T15:25:05.504Z,94520.53
2023-04-26T15:27:31.809Z,94514.63
2023-04-26T15:29:58.134Z,94525.75
2023-04-26T15:32:24.496Z,94517.88
2023-04-26T15:34:50.871Z,94514.16
2023-04-26T15:37:17.211Z,94504.50
2023-04-26T15:39:43.547Z,94514.69
2023-04-26T15:42:09.929Z,94516.34
2023-04-26T15:44:36.256Z,94517.84
2023-04-26T15:47:02.618Z,94518.44
2023-04-26T15:49:28.979Z,94521.81
2023-04-26T15:51:55.309Z,94515.66
2023-04-26T15:54:21.650Z,94520.28
2023-04-26T15:56:48.007Z,94524.47
2023-04-26T15:59:14.334Z,94523.28
2023-04-26T16:01:40.668Z,94519.69
2023-04-26T16:04:07.163Z,94524.41
2023-04-26T16:06:33.672Z,94518.25
2023-04-26T16:09:00.006Z,94517.47
2023-04-26T16:11:26.378Z,94515.56
2023-04-26T16:13:52.911Z,94514.47
2023-04-26T16:16:19.324Z,94521.50
2023-04-26T16:18:45.718Z,94521.47
2023-04-26T16:21:12.020Z,94516.91
2023-04-26T16:23:38.322Z,94522.97
2023-04-26T16:26:04.646Z,94526.78
2023-04-26T16:28:30.948Z,94521.91
2023-04-26T16:30:57.295Z,94527.81
2023-04-26T16:33:23.993Z,94521.34
2023-04-26T16:35:50.647Z,94518.16
2023-04-26T16:38:16.970Z,94525.06
2023-04-26T16:40:43.301Z,94523.22
2023-04-26T16:43:09.637Z,94523.69
2023-04-26T16:45:35.941Z,94521.09
2023-04-26T16:48:02.267Z,94528.19
2023-04-26T16:50:28.611Z,94522.41
2023-04-26T16:52:54.945Z,94521.25
2023-04-26T16:55:21.260Z,94527.84
2023-04-26T16:57:47.571Z,94520.66
2023-04-26T17:00:13.895Z,94526.41
2023-04-26T17:02:40.423Z,94523.09
2023-04-26T17:05:07.080Z,94528.50
2023-04-26T17:07:33.461Z,94530.91
2023-04-26T17:09:59.780Z,94529.66
2023-04-26T17:12:26.104Z,94531.44
2023-04-26T17:14:52.407Z,94535.66
2023-04-26T17:17:18.726Z,94531.44
2023-04-26T17:19:45.036Z,94539.63
2023-04-26T17:22:11.365Z,94529.81
2023-04-26T17:24:37.672Z,94540.22
2023-04-26T17:27:03.982Z,94541.59
2023-04-26T17:29:30.310Z,94548.25
2023-04-26T17:31:56.694Z,94549.41
2023-04-26T17:34:23.075Z,94547.13
2023-04-26T17:36:49.434Z,94557.09
2023-04-26T17:39:15.747Z,94553.47
2023-04-26T17:41:42.065Z,94552.91
2023-04-26T17:44:08.373Z,94556.88
2023-04-26T17:46:34.706Z,94558.75
2023-04-26T17:49:01.039Z,94562.44
2023-04-26T17:51:27.407Z,94560.03
2023-04-26T17:53:53.740Z,94568.22
2023-04-26T17:56:20.101Z,94559.88
2023-04-26T17:58:46.415Z,94569.25
2023-04-26T18:01:12.749Z,94569.88
2023-04-26T18:03:39.274Z,94568.44
2023-04-26T18:06:05.758Z,94568.47
2023-04-26T18:08:32.094Z,94566.00
2023-04-26T18:10:58.419Z,94571.91
2023-04-26T18:13:24.744Z,94585.19
2023-04-26T18:15:51.067Z,94585.19
2023-04-26T18:18:17.537Z,94586.66
2023-04-26T18:20:43.981Z,94588.88
2023-04-26T18:23:10.315Z,94589.91
2023-04-26T18:25:36.653Z,94593.38
2023-04-26T18:28:02.975Z,94589.69
2023-04-26T18:30:29.288Z,94589.81
2023-04-26T18:32:55.678Z,94590.91
2023-04-26T18:35:22.073Z,94589.94
2023-04-26T18:37:48.427Z,94600.16
2023-04-26T18:40:14.753Z,94598.16
2023-04-26T18:42:41.089Z,94601.47
2023-04-26T18:45:07.417Z,94600.25
2023-04-26T18:47:33.753Z,94602.09
2023-04-26T18:50:00.189Z,94607.22
2023-04-26T18:52:26.532Z,94608.03
2023-04-26T18:54:52.868Z,94612.34
2023-04-26T18:57:19.172Z,94615.41
2023-04-26T18:59:45.497Z,94614.41
2023-04-26T19:02:11.925Z,94617.88
2023-04-26T19:04:38.429Z,94620.53
2023-04-26T19:07:04.894Z,94618.91
2023-04-26T19:09:35.133Z,94612.59
2023-04-26T19:12:09.495Z,94621.59
2023-04-26T19:14:35.808Z,94622.22
2023-04-26T19:17:02.148Z,94626.69
2023-04-26T19:19:28.461Z,94620.75
2023-04-26T19:21:54.771Z,94623.59
2023-04-26T19:24:21.085Z,94618.72
2023-04-26T19:26:47.397Z,94619.38
2023-04-26T19:29:13.697Z,94614.69
2023-04-26T19:31:40.062Z,94621.41
2023-04-26T19:34:06.406Z,94626.69
2023-04-26T19:36:32.746Z,94631.59
2023-04-26T19:38:59.082Z,94624.06
2023-04-26T19:41:25.389Z,94623.25
2023-04-26T19:43:51.765Z,94632.84
2023-04-26T19:46:18.174Z,94638.34
2023-04-26T19:48:44.586Z,94652.00
2023-04-26T19:51:10.921Z,94650.16
2023-04-26T19:53:37.233Z,94647.31
2023-04-26T19:56:03.568Z,94645.06
2023-04-26T19:58:29.945Z,94647.72
2023-04-26T20:00:56.299Z,94643.66
2023-04-26T20:03:22.748Z,94647.72
2023-04-26T20:05:49.223Z,94637.72
2023-04-26T20:08:15.534Z,94636.72
2023-04-26T20:10:41.867Z,94647.91
2023-04-26T20:13:08.192Z,94651.00
2023-04-26T20:15:34.515Z,94651.38
2023-04-26T20:18:00.876Z,94655.03
2023-04-26T20:20:27.245Z,94652.59
2023-04-26T20:22:53.575Z,94656.66
2023-04-26T20:25:20.035Z,94657.31
2023-04-26T20:27:46.438Z,94653.81
2023-04-26T20:30:12.753Z,94657.47
2023-04-26T20:32:39.109Z,94656.28
2023-04-26T20:35:05.458Z,94660.97
2023-04-26T20:37:31.782Z,94663.63
2023-04-26T20:39:58.103Z,94671.13
2023-04-26T20:42:24.414Z,94657.09
2023-04-26T20:44:50.745Z,94663.59
2023-04-26T20:47:17.080Z,94664.41
2023-04-26T20:49:43.512Z,94670.50
2023-04-26T20:52:09.855Z,94665.44
2023-04-26T20:54:36.158Z,94664.81
2023-04-26T20:57:02.476Z,94668.06
2023-04-26T20:59:28.787Z,94664.81
2023-04-26T21:01:55.113Z,94668.25
2023-04-26T21:04:21.695Z,94667.84
2023-04-26T21:06:48.349Z,94671.31
2023-04-26T21:09:14.671Z,94665.81
2023-04-26T21:11:40.981Z,94659.50
2023-04-26T21:14:07.291Z,94652.16
2023-04-26T21:16:33.594Z,94657.06
2023-04-26T21:18:59.919Z,94660.28
2023-04-26T21:21:28.103Z,94668.66
2023-04-26T21:23:54.646Z,94662.34
2023-04-26T21:26:20.968Z,94657.44
2023-04-26T21:28:47.264Z,94659.69
2023-04-26T21:31:13.595Z,94661.94
2023-04-26T21:33:39.970Z,94654.78
2023-04-26T21:36:06.304Z,94662.31
2023-04-26T21:38:32.622Z,94664.34
2023-04-26T21:40:58.948Z,94654.19
2023-04-26T21:43:25.281Z,94654.56
2023-04-26T21:45:51.594Z,94664.97
2023-04-26T21:48:17.907Z,94657.03
2023-04-26T21:50:44.216Z,94659.66
2023-04-26T21:53:10.517Z,94666.91
2023-04-26T21:55:36.873Z,94664.69
2023-04-26T21:58:03.223Z,94666.44
2023-04-26T22:00:29.570Z,94666.59
2023-04-26T22:02:56.058Z,94676.56
2023-04-26T22:05:22.477Z,94677.22
2023-04-26T22:07:48.777Z,94667.44
2023-04-26T22:10:15.095Z,94677.00
2023-04-26T22:12:41.421Z,94669.69
2023-04-26T22:15:07.737Z,94676.97
2023-04-26T22:17:34.128Z,94668.97
2023-04-26T22:20:00.475Z,94663.84
2023-04-26T22:22:26.798Z,94665.88
2023-04-26T22:24:53.135Z,94659.31
2023-04-26T22:27:19.444Z,94666.44
2023-04-26T22:29:45.758Z,94667.41
2023-04-26T22:32:12.200Z,94674.88
2023-04-26T22:34:38.591Z,94681.56
2023-04-26T22:37:19.778Z,94679.56
2023-04-26T22:39:46.976Z,94685.91
2023-04-26T22:42:13.284Z,94691.88
2023-04-26T22:44:39.591Z,94690.50
2023-04-26T22:47:05.900Z,94696.84
2023-04-26T22:49:32.229Z,94696.03
2023-04-26T22:52:07.773Z,94701.53
2023-04-26T22:54:38.270Z,94715.81
2023-04-26T22:57:04.588Z,94713.81
2023-04-26T22:59:30.899Z,94717.34
2023-04-26T23:01:57.233Z,94723.66
2023-04-26T23:04:23.600Z,94728.00
2023-04-26T23:06:49.929Z,94726.03
2023-04-26T23:09:16.264Z,94719.94
2023-04-26T23:11:42.592Z,94721.78
2023-04-26T23:14:08.909Z,94719.97
2023-04-26T23:16:35.305Z,94720.34
2023-04-26T23:19:01.652Z,94723.69
2023-04-26T23:21:27.975Z,94713.75
2023-04-26T23:23:54.283Z,94729.00
2023-04-26T23:26:20.583Z,94718.38
2023-04-26T23:28:46.901Z,94717.69
2023-04-26T23:31:13.221Z,94718.44
2023-04-26T23:33:39.533Z,94718.44
2023-04-26T23:36:05.855Z,94718.53
2023-04-26T23:38:32.197Z,94723.91
2023-04-26T23:40:58.506Z,94718.47
2023-04-26T23:43:24.817Z,94720.53
2023-04-26T23:45:51.392Z,94718.19
2023-04-26T23:48:17.756Z,94714.91
2023-04-26T23:50:44.085Z,94712.16
2023-04-26T23:53:10.398Z,94720.59
2023-04-26T23:55:36.717Z,94726.50
2023-04-26T23:58:03.022Z,94724.53
